createdAt,value
2018-08-30T07:04:13.866Z,992.7
2018-08-30T07:04:34.338Z,992.7
2018-08-30T07:04:54.745Z,992.7
2018-08-30T07:05:16.041Z,992.7
2018-08-30T07:05:36.502Z,992.7
2018-08-30T07:05:56.745Z,992.7
2018-08-30T07:06:17.034Z,992.7
2018-08-30T07:06:37.247Z,992.7
2018-08-30T07:06:57.696Z,992.7
2018-08-30T07:07:18.041Z,992.7
2018-08-30T07:07:38.248Z,992.7
2018-08-30T07:07:58.545Z,992.7
2018-08-30T07:08:19.137Z,992.7
2018-08-30T07:08:40.098Z,992.8
2018-08-30T07:09:00.444Z,992.8
2018-08-30T07:09:20.885Z,992.8
2018-08-30T07:11:03.405Z,992.8
2018-08-30T07:11:23.949Z,992.8
2018-08-30T07:11:44.150Z,992.8
2018-08-30T07:12:04.814Z,992.8
2018-08-30T07:12:24.982Z,992.8
2018-08-30T07:12:45.444Z,992.8
2018-08-30T07:13:06.128Z,992.8
2018-08-30T07:13:26.566Z,992.8
2018-08-30T07:13:47.615Z,992.8
2018-08-30T07:14:08.053Z,992.8
2018-08-30T07:14:28.397Z,992.8
2018-08-30T07:14:48.999Z,992.8
2018-08-30T07:15:09.714Z,992.8
2018-08-30T07:15:30.000Z,992.8
2018-08-30T07:15:51.327Z,992.8
2018-08-30T07:16:11.469Z,992.8
2018-08-30T07:16:31.648Z,992.8
2018-08-30T07:16:52.203Z,992.8
2018-08-30T07:17:12.490Z,992.8
2018-08-30T07:17:33.708Z,992.8
2018-08-30T07:17:54.123Z,992.8
2018-08-30T07:18:14.332Z,992.8
2018-08-30T07:18:34.512Z,992.8
2018-08-30T07:18:54.944Z,992.8
2018-08-30T07:19:15.301Z,992.8
2018-08-30T07:19:35.515Z,992.8
2018-08-30T07:19:55.814Z,992.8
2018-08-30T07:20:16.476Z,992.8
2018-08-30T07:20:36.976Z,992.7
2018-08-30T07:20:57.410Z,992.8
2018-08-30T07:21:17.988Z,992.8
2018-08-30T07:21:38.926Z,992.8
2018-08-30T07:21:59.091Z,992.7
2018-08-30T07:22:19.298Z,992.8
2018-08-30T07:22:39.565Z,992.8
2018-08-30T07:23:00.044Z,992.8
2018-08-30T07:23:21.052Z,992.8
2018-08-30T07:23:41.329Z,992.8
2018-08-30T07:24:01.581Z,992.8
2018-08-30T07:24:22.234Z,992.8
2018-08-30T07:24:43.603Z,992.8
2018-08-30T07:25:04.475Z,992.8
2018-08-30T07:25:25.377Z,992.7
2018-08-30T07:25:45.955Z,992.8
2018-08-30T07:26:06.310Z,992.8
2018-08-30T07:26:26.781Z,992.8
2018-08-30T07:26:47.415Z,992.8
2018-08-30T07:27:08.297Z,992.9
2018-08-30T07:27:29.298Z,992.8
2018-08-30T07:27:50.110Z,992.8
2018-08-30T07:28:10.413Z,992.9
2018-08-30T07:28:30.705Z,992.9
2018-08-30T07:28:51.310Z,992.9
2018-08-30T07:29:11.793Z,992.9
2018-08-30T07:29:32.165Z,992.9
2018-08-30T07:29:52.700Z,992.9
2018-08-30T07:30:13.122Z,992.9
2018-08-30T07:30:33.635Z,992.9
2018-08-30T07:30:54.031Z,992.9
2018-08-30T07:31:14.589Z,992.9
2018-08-30T07:31:35.548Z,992.9
2018-08-30T07:31:56.038Z,992.8
2018-08-30T07:32:16.430Z,992.8
2018-08-30T07:32:36.597Z,992.9
2018-08-30T07:32:57.215Z,992.9
2018-08-30T07:33:17.531Z,992.8
2018-08-30T07:33:37.690Z,992.9
2018-08-30T07:33:58.192Z,992.9
2018-08-30T07:34:19.342Z,992.9
2018-08-30T07:34:41.254Z,992.9
2018-08-30T07:35:02.126Z,992.9
2018-08-30T07:35:22.365Z,992.9
2018-08-30T07:35:42.609Z,992.9
2018-08-30T07:36:03.184Z,992.9
2018-08-30T07:36:23.758Z,992.9
2018-08-30T07:36:44.804Z,992.9
2018-08-30T07:37:05.114Z,992.9
2018-08-30T07:37:25.431Z,992.9
2018-08-30T07:37:45.970Z,992.9
2018-08-30T07:38:06.635Z,992.9
2018-08-30T07:38:26.974Z,993
2018-08-30T07:38:47.619Z,992.9
2018-08-30T07:39:08.525Z,992.9
2018-08-30T07:39:28.745Z,992.9
2018-08-30T07:39:49.015Z,992.9
2018-08-30T07:40:09.218Z,992.9
2018-08-30T07:40:29.680Z,992.9
2018-08-30T07:40:50.776Z,992.9
2018-08-30T07:41:11.001Z,992.9
2018-08-30T07:41:31.546Z,992.9
2018-08-30T07:41:51.745Z,992.9
2018-08-30T07:42:12.180Z,992.9
2018-08-30T07:42:32.511Z,992.9
2018-08-30T07:42:52.964Z,992.9
2018-08-30T07:43:13.144Z,992.9
2018-08-30T07:43:33.290Z,992.9
2018-08-30T07:43:53.457Z,992.9
2018-08-30T07:44:13.761Z,992.9
2018-08-30T07:44:33.950Z,992.9
2018-08-30T07:44:54.431Z,992.9
2018-08-30T07:45:14.578Z,992.9
2018-08-30T07:45:34.758Z,992.9
2018-08-30T07:45:54.913Z,992.9
2018-08-30T07:46:15.092Z,992.9
2018-08-30T07:46:35.395Z,992.9
2018-08-30T07:46:55.418Z,993
2018-08-30T07:47:15.627Z,993
2018-08-30T07:47:35.750Z,993
2018-08-30T07:47:55.984Z,993
2018-08-30T07:48:16.132Z,992.9
2018-08-30T07:48:36.311Z,993
2018-08-30T07:48:56.460Z,992.9
2018-08-30T07:49:16.608Z,993
2018-08-30T07:49:36.786Z,993
2018-08-30T07:49:56.950Z,993
2018-08-30T07:50:17.093Z,993
2018-08-30T07:50:37.245Z,993.1
2018-08-30T07:50:57.572Z,993
2018-08-30T07:51:17.721Z,993.1
2018-08-30T07:51:37.898Z,993
2018-08-30T07:51:58.069Z,993
2018-08-30T07:52:18.266Z,993
2018-08-30T07:52:38.413Z,993.1
2018-08-30T07:52:58.596Z,993.1
2018-08-30T07:53:18.759Z,993
2018-08-30T07:53:38.895Z,993.1
2018-08-30T07:53:59.087Z,993
2018-08-30T07:54:19.250Z,993
2018-08-30T07:54:39.421Z,993
2018-08-30T07:54:59.549Z,993
2018-08-30T07:55:19.690Z,993.1
2018-08-30T07:55:39.868Z,993
2018-08-30T07:56:00.034Z,993
2018-08-30T07:56:20.193Z,993
2018-08-30T07:56:40.315Z,993
2018-08-30T07:57:00.508Z,993
2018-08-30T07:57:20.730Z,993
2018-08-30T07:57:40.814Z,993
2018-08-30T07:58:00.974Z,993
2018-08-30T07:58:21.124Z,993
2018-08-30T07:58:41.281Z,993.1
2018-08-30T07:59:01.435Z,993.1
2018-08-30T07:59:21.589Z,993
2018-08-30T07:59:41.793Z,993.1
2018-08-30T08:00:02.065Z,993
2018-08-30T08:00:22.268Z,993
2018-08-30T08:00:42.452Z,993
2018-08-30T08:01:02.621Z,993
2018-08-30T08:01:22.777Z,993
2018-08-30T08:01:42.928Z,993
2018-08-30T08:02:03.083Z,993
2018-08-30T08:02:23.264Z,993
2018-08-30T08:02:43.442Z,993
2018-08-30T08:03:03.590Z,993
2018-08-30T08:03:23.746Z,993
2018-08-30T08:03:43.905Z,993
2018-08-30T08:04:04.065Z,992.9
2018-08-30T08:04:24.195Z,993
2018-08-30T08:04:44.350Z,993
2018-08-30T08:05:04.505Z,993
2018-08-30T08:05:24.668Z,993
2018-08-30T08:05:44.843Z,993
2018-08-30T08:06:05.103Z,993
2018-08-30T08:06:25.229Z,993
2018-08-30T08:06:45.384Z,993
2018-08-30T08:07:05.554Z,993
2018-08-30T08:07:25.743Z,993
2018-08-30T08:07:45.907Z,993
2018-08-30T08:08:06.095Z,993
2018-08-30T08:08:26.239Z,993
2018-08-30T08:08:46.412Z,993
2018-08-30T08:09:06.583Z,993
2018-08-30T08:09:26.722Z,993.1
2018-08-30T08:09:46.880Z,993.1
2018-08-30T08:10:07.047Z,993.1
2018-08-30T08:10:27.190Z,993.1
2018-08-30T09:07:38.725Z,993.7
2018-08-30T09:07:58.926Z,993.7
2018-08-30T09:08:19.003Z,993.8
2018-08-30T09:08:39.144Z,993.8
2018-08-30T09:08:59.308Z,993.8
2018-08-30T09:09:19.489Z,993.7
2018-08-30T09:09:39.639Z,993.8
2018-08-30T09:09:59.796Z,993.8
2018-08-30T09:10:19.945Z,993.8
2018-08-30T09:10:40.129Z,993.8
2018-08-30T09:11:00.323Z,993.8
2018-08-30T09:11:20.503Z,993.8
2018-08-30T09:11:40.694Z,993.8
2018-08-30T09:12:00.919Z,993.8
2018-08-30T09:12:21.084Z,993.8
2018-08-30T09:12:41.233Z,993.8
2018-08-30T09:13:01.396Z,993.8
2018-08-30T09:13:21.554Z,993.8
2018-08-30T09:13:41.716Z,993.8
2018-08-30T09:14:01.873Z,993.8
2018-08-30T09:14:22.059Z,993.9
2018-08-30T09:14:42.221Z,993.9
2018-08-30T09:15:02.405Z,993.9
2018-08-30T09:15:22.553Z,993.9
2018-08-30T09:15:42.709Z,993.9
2018-08-30T09:16:02.839Z,993.9
2018-08-30T09:16:23.019Z,993.9
2018-08-30T09:16:43.179Z,993.9
2018-08-30T09:17:03.306Z,993.9
2018-08-30T09:17:23.466Z,993.9
2018-08-30T09:17:43.632Z,993.9
2018-08-30T09:18:03.792Z,993.9
2018-08-30T09:18:24.164Z,993.9
2018-08-30T09:18:44.216Z,993.9
2018-08-30T09:19:04.394Z,993.9
2018-08-30T09:19:24.538Z,993.9
2018-08-30T09:19:44.672Z,993.9
2018-08-30T09:20:04.841Z,993.9
2018-08-30T09:20:24.995Z,993.9
2018-08-30T09:20:45.146Z,993.9
2018-08-30T09:21:05.283Z,993.9
2018-08-30T09:21:25.428Z,993.9
2018-08-30T09:21:45.598Z,993.9
2018-08-30T09:22:05.723Z,993.9
2018-08-30T09:22:25.893Z,993.9
2018-08-30T09:22:46.026Z,993.9
2018-08-30T09:23:06.261Z,993.9
2018-08-30T09:23:26.438Z,993.8
2018-08-30T09:23:46.580Z,993.9
2018-08-30T09:24:06.717Z,993.9
2018-08-30T09:24:26.891Z,993.9
2018-08-30T09:24:47.055Z,993.9
2018-08-30T09:25:07.208Z,993.9
2018-08-30T09:25:27.321Z,993.9
2018-08-30T09:25:47.466Z,993.9
2018-08-30T09:26:07.634Z,993.9
2018-08-30T09:26:27.802Z,993.9
2018-08-30T09:26:48.060Z,993.9
2018-08-30T09:27:08.158Z,993.9
2018-08-30T09:27:28.309Z,993.9
2018-08-30T09:27:48.559Z,993.9
2018-08-30T09:28:08.944Z,993.9
2018-08-30T09:28:29.107Z,993.9
2018-08-30T09:28:49.283Z,994
2018-08-30T09:29:09.423Z,993.9
2018-08-30T09:29:29.598Z,993.9
2018-08-30T09:29:49.868Z,993.9
2018-08-30T09:30:10.037Z,993.9
2018-08-30T09:30:30.193Z,993.9
2018-08-30T10:42:47.377Z,994.6
2018-08-30T10:43:08.046Z,994.6
2018-08-30T10:43:28.344Z,994.7
2018-08-30T10:43:48.642Z,994.6
2018-08-30T10:44:08.891Z,994.7
2018-08-30T10:44:29.186Z,994.7
2018-08-30T10:44:50.116Z,994.7
2018-08-30T10:45:10.654Z,994.7
2018-08-30T10:45:31.293Z,994.7
2018-08-30T10:45:51.828Z,994.7
2018-08-30T10:46:12.108Z,994.7
2018-08-30T10:46:32.664Z,994.7
2018-08-30T10:46:53.116Z,994.7
2018-08-30T10:47:13.531Z,994.7
2018-08-30T10:47:33.772Z,994.7
2018-08-30T10:47:54.034Z,994.7
2018-08-30T10:48:14.361Z,994.7
2018-08-30T10:48:34.516Z,994.7
2018-08-30T10:48:54.849Z,994.7
2018-08-30T10:49:15.058Z,994.7
2018-08-30T10:49:35.638Z,994.7
2018-08-30T10:49:55.856Z,994.7
2018-08-30T10:50:19.207Z,994.7
2018-08-30T10:50:39.825Z,994.7
2018-08-30T10:51:00.302Z,994.7
2018-08-30T10:51:20.911Z,994.7
2018-08-30T10:51:41.276Z,994.7
2018-08-30T10:52:01.482Z,994.7
2018-08-30T10:52:21.659Z,994.7
2018-08-30T10:52:41.955Z,994.7
2018-08-30T10:53:02.227Z,994.8
2018-08-30T10:53:22.515Z,994.8
2018-08-30T10:53:42.834Z,994.8
2018-08-30T10:54:03.181Z,994.8
2018-08-30T10:54:24.665Z,994.8
2018-08-30T10:54:44.955Z,994.8
2018-08-30T10:55:05.300Z,994.8
2018-08-30T10:55:25.560Z,994.8
2018-08-30T10:55:45.771Z,994.8
2018-08-30T11:51:10.807Z,995.5
2018-08-30T11:51:31.068Z,995.5
2018-08-30T11:51:51.297Z,995.5
2018-08-30T11:52:11.504Z,995.5
2018-08-30T11:52:31.999Z,995.5
2018-08-30T11:52:52.145Z,995.5
2018-08-30T11:53:12.415Z,995.5
2018-08-30T11:53:32.610Z,995.6
2018-08-30T11:53:52.756Z,995.6
2018-08-30T11:54:13.056Z,995.6
2018-08-30T11:54:33.203Z,995.6
2018-08-30T11:54:53.341Z,995.6
2018-08-30T11:55:13.466Z,995.6
2018-08-30T11:55:33.632Z,995.5
2018-08-30T11:55:53.768Z,995.6
2018-08-30T11:56:13.883Z,995.6
2018-08-30T11:56:34.073Z,995.6
2018-08-30T11:56:54.264Z,995.6
2018-08-30T11:57:14.495Z,995.6
2018-08-30T11:57:34.704Z,995.6
2018-08-30T11:57:54.859Z,995.6
2018-08-30T11:58:15.030Z,995.6
2018-08-30T11:58:35.173Z,995.6
2018-08-30T11:58:55.320Z,995.6
2018-08-30T11:59:15.509Z,995.6
2018-08-30T11:59:35.624Z,995.6
2018-08-30T11:59:55.776Z,995.6
2018-08-30T12:00:15.955Z,995.6
2018-08-30T12:00:36.107Z,995.6
2018-08-30T12:00:56.440Z,995.6
2018-08-30T12:01:16.453Z,995.6
2018-08-30T12:01:36.648Z,995.6
2018-08-30T12:01:56.795Z,995.7
2018-08-30T12:02:16.951Z,995.6
2018-08-30T12:02:37.100Z,995.6
2018-08-30T12:02:57.252Z,995.6
2018-08-30T12:03:17.393Z,995.6
2018-08-30T12:03:37.601Z,995.5
2018-08-30T12:03:57.774Z,995.5
2018-08-30T12:04:17.934Z,995.5
2018-08-30T12:04:38.071Z,995.6
2018-08-30T12:04:58.257Z,995.5
2018-08-30T12:05:18.431Z,995.6
2018-08-30T12:05:38.609Z,995.5
2018-08-30T12:05:58.782Z,995.5
2018-08-30T12:06:18.982Z,995.5
2018-08-30T12:06:39.123Z,995.6
2018-08-30T12:06:59.355Z,995.6
2018-08-30T12:07:19.525Z,995.5
2018-08-30T12:07:39.814Z,995.6
2018-08-30T12:08:00.027Z,995.5
2018-08-30T12:08:20.514Z,995.5
2018-08-30T12:08:40.628Z,995.5
2018-08-30T12:09:00.821Z,995.5
2018-08-30T12:09:20.986Z,995.5
2018-08-30T12:09:41.190Z,995.5
2018-08-30T12:10:01.383Z,995.5
2018-08-30T12:10:21.682Z,995.5
2018-08-30T12:10:42.252Z,995.5
2018-08-30T12:11:02.858Z,995.5
2018-08-30T12:11:22.991Z,995.6
2018-08-30T12:11:43.210Z,995.6
2018-08-30T12:12:03.322Z,995.6
2018-08-30T12:12:23.494Z,995.6
2018-08-30T12:12:43.683Z,995.6
2018-08-30T12:13:03.909Z,995.6
2018-08-30T12:13:24.166Z,995.6
2018-08-30T12:13:44.322Z,995.6
2018-08-30T12:14:04.571Z,995.6
2018-08-30T12:14:24.920Z,995.6
2018-08-30T12:14:45.252Z,995.6
2018-08-30T12:15:05.515Z,995.6
2018-08-30T12:15:25.687Z,995.6
2018-08-30T12:15:45.862Z,995.6
2018-08-30T12:16:06.150Z,995.6
2018-08-30T12:16:26.319Z,995.7
2018-08-30T12:16:46.564Z,995.6
2018-08-30T12:17:06.737Z,995.7
2018-08-30T12:17:27.007Z,995.7
2018-08-30T12:17:47.172Z,995.7
2018-08-30T12:18:07.413Z,995.7
2018-08-30T12:18:27.618Z,995.7
2018-08-30T12:18:48.046Z,995.7
2018-08-30T12:19:08.488Z,995.7
2018-08-30T12:19:28.777Z,995.7
2018-08-30T12:19:48.969Z,995.7
2018-08-30T12:20:09.184Z,995.7
2018-08-30T12:20:29.535Z,995.7
2018-08-30T12:20:50.310Z,995.7
2018-08-30T12:21:10.429Z,995.6
2018-08-30T12:21:30.640Z,995.7
2018-08-30T12:21:51.607Z,995.7
2018-08-30T12:22:11.931Z,995.7
2018-08-30T12:22:32.124Z,995.7
2018-08-30T12:22:52.526Z,995.7
2018-08-30T12:23:12.841Z,995.7
2018-08-30T12:23:33.069Z,995.7
2018-08-30T12:23:53.203Z,995.7
2018-08-30T12:24:13.428Z,995.7
2018-08-30T12:24:33.628Z,995.7
2018-08-30T12:24:53.841Z,995.7
2018-08-30T12:25:14.219Z,995.7
2018-08-30T12:25:34.428Z,995.7
2018-08-30T12:25:54.672Z,995.7
2018-08-30T12:26:14.831Z,995.7
2018-08-30T12:26:35.052Z,995.7
2018-08-30T12:26:55.310Z,995.8
2018-08-30T12:27:15.561Z,995.8
2018-08-30T12:27:35.890Z,995.8
2018-08-30T12:27:56.377Z,995.8
2018-08-30T12:28:16.694Z,995.8
2018-08-30T12:28:37.056Z,995.8
2018-08-30T12:28:57.211Z,995.8
2018-08-30T12:29:17.360Z,995.8
2018-08-30T12:29:37.637Z,995.8
2018-08-30T12:29:57.920Z,995.8
2018-08-30T12:30:18.154Z,995.8
2018-08-30T12:30:38.420Z,995.8
2018-08-30T12:30:58.798Z,995.8
2018-08-30T12:31:19.325Z,995.8
2018-08-30T12:31:39.375Z,995.8
2018-08-30T12:31:59.583Z,995.8
2018-08-30T12:32:19.787Z,995.7
2018-08-30T12:32:40.230Z,995.8
2018-08-30T12:33:00.439Z,995.7
2018-08-30T12:33:20.692Z,995.7
2018-08-30T12:33:40.938Z,995.7
2018-08-30T12:34:01.265Z,995.7
2018-08-30T12:34:21.616Z,995.7
2018-08-30T12:34:41.822Z,995.7
2018-08-30T12:35:02.114Z,995.8
2018-08-30T12:35:22.455Z,995.8
2018-08-30T12:35:43.342Z,995.8
2018-08-30T12:36:03.603Z,995.7
2018-08-30T12:36:23.689Z,995.7
2018-08-30T12:36:43.882Z,995.7
2018-08-30T12:37:04.151Z,995.8
2018-08-30T12:37:24.433Z,995.8
2018-08-30T12:37:44.668Z,995.9
2018-08-30T12:38:05.269Z,995.8
2018-08-30T12:38:25.439Z,995.9
2018-08-30T12:38:45.836Z,995.8
2018-08-30T12:39:06.258Z,995.8
2018-08-30T12:39:26.455Z,995.8
2018-08-30T12:39:46.762Z,995.8
2018-08-30T12:40:07.247Z,995.8
2018-08-30T12:40:27.891Z,995.8
2018-08-30T12:40:48.519Z,995.9
2018-08-30T12:41:08.732Z,995.8
2018-08-30T12:41:28.897Z,995.9
2018-08-30T12:41:49.180Z,995.9
2018-08-30T12:42:09.370Z,995.9
2018-08-30T12:42:29.641Z,995.8
2018-08-30T12:42:50.002Z,995.8
2018-08-30T12:43:10.127Z,995.8
2018-08-30T12:43:30.756Z,995.8
2018-08-30T12:43:50.933Z,995.9
2018-08-30T12:44:11.189Z,995.8
2018-08-30T12:44:31.533Z,995.9
2018-08-30T12:44:51.810Z,995.9
2018-08-30T12:45:12.015Z,995.9
2018-08-30T12:45:32.365Z,995.9
2018-08-30T12:45:52.546Z,995.9
2018-08-30T12:46:12.866Z,995.9
2018-08-30T12:46:32.993Z,995.9
2018-08-30T12:46:53.245Z,995.9
2018-08-30T12:47:13.450Z,995.9
2018-08-30T12:47:33.724Z,995.9
2018-08-30T12:47:54.187Z,995.9
2018-08-30T12:48:14.615Z,996
2018-08-30T12:48:34.931Z,995.9
2018-08-30T12:48:55.235Z,995.9
2018-08-30T12:49:15.484Z,995.9
2018-08-30T12:49:35.812Z,995.9
2018-08-30T12:49:55.988Z,995.9
2018-08-30T12:50:16.377Z,995.9
2018-08-30T12:50:36.519Z,995.9
2018-08-30T12:50:56.714Z,996
2018-08-30T12:51:17.613Z,995.9
2018-08-30T12:51:37.900Z,995.9
2018-08-30T12:51:57.928Z,995.9
2018-08-30T12:52:18.024Z,995.9
2018-08-30T12:52:38.733Z,996
2018-08-30T12:52:58.879Z,996
2018-08-30T12:53:19.196Z,996
2018-08-30T12:53:39.371Z,995.9
2018-08-30T12:53:59.409Z,996
2018-08-30T12:54:20.022Z,996
2018-08-30T12:54:40.878Z,996
2018-08-30T12:55:01.348Z,996
2018-08-30T12:55:21.808Z,996
2018-08-30T12:55:42.070Z,996
2018-08-30T12:56:02.403Z,996
2018-08-30T12:56:22.765Z,996
2018-08-30T12:56:43.021Z,996
2018-08-30T12:57:03.357Z,996
2018-08-30T12:57:23.671Z,996
2018-08-30T12:57:43.911Z,996
2018-08-30T12:58:04.206Z,996
2018-08-30T12:58:24.426Z,996
2018-08-30T12:58:44.695Z,996
2018-08-30T12:59:05.074Z,996
2018-08-30T12:59:25.291Z,996
2018-08-30T12:59:45.475Z,996
2018-08-30T13:00:05.767Z,996
2018-08-30T13:00:25.983Z,996
2018-08-30T13:00:46.349Z,996
2018-08-30T13:01:06.817Z,996.1
2018-08-30T13:01:27.086Z,996
2018-08-30T13:01:47.224Z,996
2018-08-30T13:02:08.097Z,996
2018-08-30T13:02:28.322Z,996.1
2018-08-30T13:02:48.488Z,996
2018-08-30T13:03:08.677Z,996.1
2018-08-30T13:03:28.959Z,996.1
2018-08-30T13:03:49.006Z,996.1
2018-08-30T13:04:09.283Z,996.1
2018-08-30T13:17:57.808Z,996.3
2018-08-30T13:18:18.791Z,996.3
2018-08-30T13:18:39.423Z,996.3
2018-08-30T13:18:59.834Z,996.3
2018-08-30T13:19:21.158Z,996.3
2018-08-30T13:19:41.256Z,996.3
2018-08-30T13:20:02.720Z,996.3
2018-08-30T13:20:25.468Z,996.4
2018-08-30T13:20:45.758Z,996.4
2018-08-30T13:21:06.541Z,996.4
2018-08-30T13:21:27.414Z,996.4
2018-08-30T13:21:47.600Z,996.4
2018-08-30T13:22:07.988Z,996.4
2018-08-30T13:22:28.179Z,996.4
2018-08-30T13:22:48.874Z,996.4
2018-08-30T13:23:09.891Z,996.4
2018-08-30T13:23:31.148Z,996.4
2018-08-30T13:23:51.925Z,996.4
2018-08-30T13:24:12.055Z,996.4
2018-08-30T13:24:32.470Z,996.4
2018-08-30T13:24:52.820Z,996.5
2018-08-30T13:25:13.459Z,996.4
2018-08-30T13:25:33.864Z,996.4
2018-08-30T13:25:54.017Z,996.4
2018-08-30T13:26:14.140Z,996.5
2018-08-30T13:26:34.489Z,996.4
2018-08-30T13:26:55.217Z,996.4
2018-08-30T13:27:15.406Z,996.4
2018-08-30T13:27:35.803Z,996.5
2018-08-30T13:27:55.944Z,996.4
2018-08-30T13:28:16.067Z,996.4
2018-08-30T13:28:36.476Z,996.4
2018-08-30T13:28:56.511Z,996.4
2018-08-30T13:29:17.401Z,996.4
2018-08-30T13:29:38.451Z,996.4
2018-08-30T13:29:58.883Z,996.4
2018-08-30T13:30:19.658Z,996.4
2018-08-30T13:30:41.005Z,996.5
2018-08-30T13:31:01.144Z,996.4
2018-08-30T13:31:21.158Z,996.5
2018-08-30T13:31:41.797Z,996.4
2018-08-30T13:32:01.838Z,996.5
2018-08-30T13:32:22.200Z,996.4
2018-08-30T13:32:42.582Z,996.4
2018-08-30T13:33:02.588Z,996.4
2018-08-30T13:33:25.948Z,996.4
2018-08-30T13:33:46.306Z,996.4
2018-08-30T13:34:08.294Z,996.5
2018-08-30T13:34:28.386Z,996.4
2018-08-30T13:34:48.744Z,996.5
2018-08-30T13:35:09.853Z,996.5
2018-08-30T13:35:30.532Z,996.5
2018-08-30T13:35:50.935Z,996.5
2018-08-30T13:36:11.034Z,996.4
2018-08-30T13:36:31.710Z,996.5
2018-08-30T13:36:52.187Z,996.5
2018-08-30T13:37:12.140Z,996.5
2018-08-30T13:37:32.554Z,996.5
2018-08-30T13:37:52.742Z,996.5
2018-08-30T13:38:14.966Z,996.5
2018-08-30T13:38:35.235Z,996.5
2018-08-30T13:38:56.096Z,996.5
2018-08-30T13:39:16.344Z,996.5
2018-08-30T13:39:36.712Z,996.6
2018-08-30T13:39:57.371Z,996.6
2018-08-30T13:40:17.884Z,996.5
2018-08-30T13:40:38.728Z,996.6
2018-08-30T13:40:59.097Z,996.5
2018-08-30T13:41:19.382Z,996.6
2018-08-30T13:41:39.954Z,996.6
2018-08-30T13:42:00.456Z,996.6
2018-08-30T13:42:20.470Z,996.6
2018-08-30T13:42:40.575Z,996.6
2018-08-30T13:43:01.786Z,996.6
2018-08-30T13:43:21.784Z,996.6
2018-08-30T13:43:42.024Z,996.7
2018-08-30T13:44:02.452Z,996.6
2018-08-30T13:44:22.660Z,996.6
2018-08-30T13:44:42.896Z,996.6
2018-08-30T13:45:04.116Z,996.7
2018-08-30T13:45:24.072Z,996.7
2018-08-30T13:45:44.211Z,996.7
2018-08-30T13:46:04.606Z,996.6
2018-08-30T13:46:24.650Z,996.7
2018-08-30T13:46:44.874Z,996.7
2018-08-30T13:47:05.351Z,996.7
2018-08-30T13:47:25.471Z,996.7
2018-08-30T13:47:46.203Z,996.7
2018-08-30T13:48:07.358Z,996.7
2018-08-30T13:48:28.237Z,996.7
2018-08-30T13:48:48.907Z,996.7
2018-08-30T13:49:09.268Z,996.7
2018-08-30T13:49:29.277Z,996.7
2018-08-30T13:49:49.558Z,996.7
2018-08-30T13:50:10.076Z,996.7
2018-08-30T13:50:30.152Z,996.7
2018-08-30T13:50:51.028Z,996.8
2018-08-30T13:51:11.425Z,996.8
2018-08-30T13:51:32.187Z,996.8
2018-08-30T13:51:52.427Z,996.8
2018-08-30T13:52:12.378Z,996.8
2018-08-30T13:52:32.946Z,996.8
2018-08-30T13:52:52.821Z,996.8
2018-08-30T13:53:13.139Z,996.8
2018-08-30T13:53:33.297Z,996.7
2018-08-30T13:53:54.882Z,996.8
2018-08-30T13:54:15.063Z,996.8
2018-08-30T13:54:35.456Z,996.7
2018-08-30T13:54:56.268Z,996.7
2018-08-30T13:55:18.107Z,996.8
2018-08-30T13:55:38.308Z,996.8
2018-08-30T13:55:59.741Z,996.8
2018-08-30T13:56:19.923Z,996.8
2018-08-30T13:56:42.098Z,996.8
2018-08-30T13:57:02.376Z,996.8
2018-08-30T13:57:24.525Z,996.8
2018-08-30T13:57:44.696Z,996.9
2018-08-30T13:58:04.854Z,996.8
2018-08-30T13:58:24.881Z,996.8
2018-08-30T13:58:45.399Z,996.8
2018-08-30T13:59:05.656Z,996.8
2018-08-30T13:59:25.789Z,996.8
2018-08-30T13:59:47.430Z,996.8
2018-08-30T14:00:09.328Z,996.8
2018-08-30T14:00:31.993Z,996.8
2018-08-30T14:00:51.777Z,996.8
2018-08-30T14:01:12.177Z,996.8
2018-08-30T14:01:33.468Z,996.8
2018-08-30T14:01:53.741Z,996.8
2018-08-30T14:02:14.492Z,996.8
2018-08-30T14:02:34.636Z,996.8
2018-08-30T14:02:54.799Z,996.8
2018-08-30T14:03:15.609Z,996.8
2018-08-30T14:03:36.433Z,996.8
2018-08-30T14:03:57.277Z,996.8
2018-08-30T14:04:17.443Z,996.8
2018-08-30T14:04:38.261Z,996.8
2018-08-30T14:04:59.029Z,996.8
2018-08-30T14:05:19.318Z,996.8
2018-08-30T14:05:39.622Z,996.9
2018-08-30T14:59:06.473Z,997.3
2018-08-30T14:59:26.804Z,997.3
2018-08-30T14:59:47.135Z,997.2
2018-08-30T15:00:07.307Z,997.3
2018-08-30T15:00:27.675Z,997.2
2018-08-30T15:00:47.676Z,997.2
2018-08-30T15:01:07.916Z,997.2
2018-08-30T15:01:28.141Z,997.2
2018-08-30T15:01:48.357Z,997.3
2018-08-30T15:02:08.581Z,997.3
2018-08-30T15:02:28.758Z,997.3
2018-08-30T15:02:49.025Z,997.2
2018-08-30T15:03:09.219Z,997.2
2018-08-30T15:03:29.428Z,997.2
2018-08-30T15:03:49.580Z,997.3
2018-08-30T15:04:09.774Z,997.2
2018-08-30T15:04:29.975Z,997.3
2018-08-30T15:04:50.222Z,997.3
2018-08-30T15:05:10.478Z,997.3
2018-08-30T15:05:30.895Z,997.3
2018-08-30T15:05:50.981Z,997.3
2018-08-30T15:06:12.179Z,997.3
2018-08-30T15:06:33.720Z,997.3
2018-08-30T15:06:53.936Z,997.3
2018-08-30T15:07:14.068Z,997.3
2018-08-30T15:07:34.253Z,997.3
2018-08-30T15:07:54.472Z,997.3
2018-08-30T15:08:14.718Z,997.3
2018-08-30T15:08:34.977Z,997.3
2018-08-30T15:08:55.164Z,997.3
2018-08-30T15:09:16.512Z,997.3
2018-08-30T15:09:36.939Z,997.3
2018-08-30T15:09:57.114Z,997.3
2018-08-30T15:10:17.291Z,997.3
2018-08-30T15:10:37.493Z,997.3
2018-08-30T15:10:57.829Z,997.3
2018-08-30T15:11:18.201Z,997.3
2018-08-30T15:11:38.415Z,997.3
2018-08-30T15:11:58.634Z,997.3
2018-08-30T15:12:18.814Z,997.3
2018-08-30T15:12:39.075Z,997.3
2018-08-30T15:12:59.590Z,997.3
2018-08-30T15:13:19.772Z,997.3
2018-08-30T15:13:40.177Z,997.3
2018-08-30T15:14:00.333Z,997.2
2018-08-30T15:14:21.569Z,997.3
2018-08-30T15:14:41.782Z,997.3
2018-08-30T15:15:02.085Z,997.3
2018-08-30T15:15:22.249Z,997.3
2018-08-30T15:15:42.572Z,997.3
2018-08-30T15:16:02.718Z,997.3
2018-08-30T15:16:23.088Z,997.2
2018-08-30T15:16:43.284Z,997.3
2018-08-30T15:17:03.501Z,997.3
2018-08-30T15:17:23.826Z,997.3
2018-08-30T15:17:43.893Z,997.2
2018-08-30T15:18:04.173Z,997.3
2018-08-30T15:18:24.299Z,997.2
2018-08-30T15:18:44.522Z,997.3
2018-08-30T15:19:04.616Z,997.3
2018-08-30T15:19:24.777Z,997.2
2018-08-30T15:19:45.139Z,997.3
2018-08-30T15:20:05.199Z,997.3
2018-08-30T15:20:25.377Z,997.3
2018-08-30T15:20:45.654Z,997.3
2018-08-30T15:21:05.909Z,997.3
2018-08-30T15:21:26.110Z,997.3
2018-08-30T15:21:46.336Z,997.3
2018-08-30T15:22:06.653Z,997.3
2018-08-30T15:22:26.867Z,997.3
2018-08-30T15:22:47.098Z,997.4
2018-08-30T15:23:07.314Z,997.3
2018-08-30T15:23:27.733Z,997.3
2018-08-30T15:23:47.747Z,997.3
2018-08-30T15:24:07.989Z,997.4
2018-08-30T15:24:28.238Z,997.3
2018-08-30T15:24:48.504Z,997.3
2018-08-30T15:25:08.674Z,997.4
2018-08-30T15:25:29.000Z,997.3
2018-08-30T15:25:49.199Z,997.4
2018-08-30T15:26:09.414Z,997.3
2018-08-30T15:26:29.727Z,997.3
2018-08-30T15:26:49.987Z,997.3
2018-08-30T15:27:10.075Z,997.3
2018-08-30T15:27:30.248Z,997.3
2018-08-30T15:27:50.485Z,997.3
2018-08-30T15:28:10.608Z,997.3
2018-08-30T15:28:30.922Z,997.3
2018-08-30T15:28:51.129Z,997.3
2018-08-30T15:29:11.389Z,997.3
2018-08-30T15:29:32.262Z,997.4
2018-08-30T15:29:52.381Z,997.3
2018-08-30T15:30:12.592Z,997.3
2018-08-30T15:30:32.899Z,997.3
2018-08-30T15:30:53.076Z,997.3
2018-08-30T15:31:13.256Z,997.4
2018-08-30T15:31:33.416Z,997.4
2018-08-30T15:31:53.573Z,997.3
2018-08-30T15:32:13.864Z,997.3
2018-08-30T15:32:34.830Z,997.3
2018-08-30T15:32:55.052Z,997.3
2018-08-30T15:33:15.226Z,997.3
2018-08-30T15:33:35.492Z,997.3
2018-08-30T15:33:55.692Z,997.3
2018-08-30T15:34:15.951Z,997.3
2018-08-30T15:34:36.325Z,997.3
2018-08-30T15:34:56.587Z,997.3
2018-08-30T15:35:16.883Z,997.3
2018-08-30T15:35:37.060Z,997.3
2018-08-30T15:35:57.324Z,997.3
2018-08-30T15:36:17.488Z,997.4
2018-08-30T15:36:37.658Z,997.3
2018-08-30T15:36:57.840Z,997.4
2018-08-30T15:37:18.076Z,997.3
2018-08-30T15:37:38.380Z,997.3
2018-08-30T15:37:58.529Z,997.3
2018-08-30T15:38:18.697Z,997.3
2018-08-30T15:38:39.170Z,997.3
2018-08-30T15:38:59.394Z,997.3
2018-08-30T15:39:19.583Z,997.4
2018-08-30T15:39:39.734Z,997.3
2018-08-30T15:40:00.654Z,997.3